Time;durP1;ratioP1;P1;durP2;ratioP2;P2;SDS_P1;SDS_P2;PMS_P1;PMS_P2;Temp;Humidity;BMP_temperature;BMP_pressure;BME280_temperature;BME280_humidity;BME280_pressure;Samples;Min_cycle;Max_cycle;Signal;HPM_P1;HPM_P2
2021/04/19 00:01:23;;;;;;;15.15;9.00;;;;;;;6.39;100.00;102144.59;3600657;39;20093;-66
2021/04/19 00:03:49;;;;;;;14.88;9.63;;;;;;;6.40;100.00;102149.03;3600455;39;20064;-65
2021/04/19 00:06:15;;;;;;;18.88;9.40;;;;;;;6.38;100.00;102148.25;3599986;39;20471;-65
2021/04/19 00:08:40;;;;;;;18.30;9.25;;;;;;;6.25;100.00;102147.97;3600704;39;20504;-66
2021/04/19 00:11:07;;;;;;;15.00;9.10;;;;;;;6.23;100.00;102140.03;3601032;39;20048;-66
2021/04/19 00:13:33;;;;;;;18.13;10.25;;;;;;;6.11;100.00;102137.97;3599794;39;20425;-64
2021/04/19 00:15:59;;;;;;;15.55;9.63;;;;;;;6.16;100.00;102135.09;3600598;39;20059;-66
2021/04/19 00:18:26;;;;;;;19.35;9.57;;;;;;;6.02;100.00;102131.28;3599964;39;20340;-64
2021/04/19 00:20:52;;;;;;;16.35;9.25;;;;;;;6.00;100.00;102137.63;3600580;39;20422;-65
2021/04/19 00:23:18;;;;;;;16.58;9.55;;;;;;;5.99;100.00;102133.22;3598974;39;20036;-65
2021/04/19 00:25:44;;;;;;;17.25;9.93;;;;;;;5.99;100.00;102135.91;3599844;39;20433;-65
2021/04/19 00:28:10;;;;;;;17.38;10.55;;;;;;;5.86;100.00;102131.13;3599938;39;20048;-65
2021/04/19 00:30:36;;;;;;;16.60;9.82;;;;;;;5.80;100.00;102126.09;3600215;39;20054;-64
2021/04/19 00:33:02;;;;;;;18.17;10.05;;;;;;;5.87;100.00;102119.47;3600858;39;20403;-65
2021/04/19 00:35:28;;;;;;;16.55;9.75;;;;;;;5.88;100.00;102118.56;3599660;39;20031;-64
2021/04/19 00:37:54;;;;;;;19.13;11.07;;;;;;;5.91;100.00;102125.56;3600852;39;20072;-64
2021/04/19 00:40:22;;;;;;;18.52;10.40;;;;;;;5.82;100.00;102120.66;3599958;39;20055;-64
2021/04/19 00:42:50;;;;;;;23.05;10.68;;;;;;;5.71;100.00;102121.16;3600188;39;20056;-64
2021/04/19 00:45:17;;;;;;;19.45;10.70;;;;;;;5.59;100.00;102126.19;3600498;39;20039;-64
2021/04/19 00:47:45;;;;;;;16.50;11.02;;;;;;;5.66;100.00;102117.88;3599645;39;20083;-64
2021/04/19 00:50:14;;;;;;;16.55;10.82;;;;;;;5.65;100.00;102116.13;3598935;39;20044;-65
2021/04/19 00:52:41;;;;;;;18.02;10.38;;;;;;;5.59;100.00;102107.47;3600048;39;20047;-66
2021/04/19 00:55:10;;;;;;;19.85;11.30;;;;;;;5.57;100.00;102103.13;3599853;39;20044;-64
2021/04/19 00:57:37;;;;;;;19.10;11.05;;;;;;;5.57;100.00;102097.81;3599462;39;20074;-65
2021/04/19 01:00:06;;;;;;;18.13;11.48;;;;;;;5.44;100.00;102098.34;3659882;22;20055;-66
2021/04/19 01:02:32;;;;;;;17.70;11.02;;;;;;;5.28;100.00;102099.16;3609684;39;20050;-64
2021/04/19 01:07:44;;;;;;;18.48;11.18;;;;;;;5.25;100.00;102090.34;3633420;22;20499;-65
2021/04/19 01:10:11;;;;;;;17.25;10.75;;;;;;;5.29;100.00;102098.25;3609024;39;20379;-65
2021/04/19 01:12:37;;;;;;;19.25;10.77;;;;;;;5.28;100.00;102099.16;3609043;39;20416;-64
2021/04/19 01:15:05;;;;;;;21.60;11.95;;;;;;;5.28;100.00;102085.81;3609831;39;20055;-66
2021/04/19 01:17:31;;;;;;;19.75;11.60;;;;;;;5.23;100.00;102078.88;3609602;39;20136;-65
2021/04/19 01:19:57;;;;;;;23.38;12.48;;;;;;;5.16;100.00;102074.78;3609491;39;20048;-64
2021/04/19 01:22:24;;;;;;;24.42;13.60;;;;;;;5.08;100.00;102080.47;3610559;39;20099;-65
2021/04/19 01:24:50;;;;;;;22.02;12.45;;;;;;;5.07;100.00;102077.88;3609132;39;20062;-65
2021/04/19 01:27:16;;;;;;;23.15;13.43;;;;;;;5.07;100.00;102076.06;3609837;39;20389;-66
2021/04/19 01:29:42;;;;;;;22.15;12.80;;;;;;;5.21;100.00;102077.22;3609674;39;20424;-63
2021/04/19 01:32:08;;;;;;;26.08;13.32;;;;;;;5.21;100.00;102086.13;3610634;39;20060;-65
2021/04/19 01:34:34;;;;;;;23.50;12.77;;;;;;;5.18;100.00;102080.91;3610012;39;20055;-63
2021/04/19 01:37:01;;;;;;;23.77;12.82;;;;;;;5.16;100.00;102089.94;3610186;39;20096;-63
2021/04/19 01:39:28;;;;;;;27.38;13.68;;;;;;;5.24;100.00;102080.63;3610281;39;20039;-64
2021/04/19 01:41:54;;;;;;;21.60;12.27;;;;;;;5.23;100.00;102078.88;3612116;39;20402;-63
2021/04/19 01:44:20;;;;;;;23.92;14.45;;;;;;;5.31;100.00;102080.34;3610370;39;20059;-63
2021/04/19 01:46:47;;;;;;;24.65;13.77;;;;;;;5.44;100.00;102081.47;3611862;39;20321;-64
2021/04/19 01:49:15;;;;;;;24.40;13.70;;;;;;;5.43;100.00;102077.97;3610812;39;20039;-66
2021/04/19 01:51:41;;;;;;;21.38;12.82;;;;;;;5.39;100.00;102083.53;3611052;39;20079;-65
2021/04/19 01:54:08;;;;;;;28.02;13.07;;;;;;;5.29;100.00;102082.22;3611220;39;20085;-64
2021/04/19 01:56:35;;;;;;;26.80;13.85;;;;;;;5.36;100.00;102087.19;3612124;39;20132;-63
2021/04/19 01:59:02;;;;;;;24.30;13.90;;;;;;;5.37;100.00;102083.56;3610478;39;20438;-64
2021/04/19 02:01:29;;;;;;;26.95;14.15;;;;;;;5.31;100.00;102080.34;3610500;39;20066;-64
2021/04/19 02:04:05;;;;;;;20.05;12.63;;;;;;;5.25;100.00;102077.00;3610769;39;20410;-65
2021/04/19 02:06:38;;;;;;;20.83;12.95;;;;;;;5.20;100.00;102068.34;3611972;39;20057;-64
2021/04/19 02:09:11;;;;;;;21.60;13.15;;;;;;;5.22;100.00;102060.28;3610851;39;20068;-64
2021/04/19 02:11:47;;;;;;;22.90;14.35;;;;;;;5.12;100.00;102064.31;3611331;39;20108;-64
2021/04/19 02:14:31;;;;;;;22.27;13.35;;;;;;;4.93;100.00;102059.81;3610629;39;20486;-66
2021/04/19 02:17:02;;;;;;;24.95;13.32;;;;;;;4.90;100.00;102060.84;3610330;39;20348;-64
2021/04/19 02:19:38;;;;;;;25.38;14.20;;;;;;;4.84;100.00;102053.09;3610314;39;20043;-65
2021/04/19 02:22:09;;;;;;;22.23;13.70;;;;;;;4.79;100.00;102055.09;3611513;39;20059;-65
2021/04/19 02:24:40;;;;;;;23.38;13.57;;;;;;;4.68;100.00;102057.38;3611575;39;20118;-64
2021/04/19 02:27:11;;;;;;;28.73;14.27;;;;;;;4.70;100.00;102047.53;3610753;39;20416;-63
2021/04/19 02:29:39;;;;;;;21.55;13.45;;;;;;;4.70;100.00;102048.38;3610782;39;20391;-63
2021/04/19 02:32:10;;;;;;;21.40;13.68;;;;;;;4.73;100.00;102044.72;3611135;39;20068;-65
2021/04/19 02:34:37;;;;;;;23.50;12.75;;;;;;;4.70;100.00;102042.19;3611952;39;20031;-63
2021/04/19 02:37:05;;;;;;;27.95;13.82;;;;;;;4.76;100.00;102041.91;3610824;39;20135;-63
2021/04/19 02:39:35;;;;;;;24.60;13.57;;;;;;;4.70;100.00;102047.53;3611109;39;20128;-63
2021/04/19 02:42:01;;;;;;;26.63;14.73;;;;;;;4.70;100.00;102043.06;3611789;39;20315;-64
2021/04/19 02:44:30;;;;;;;29.55;14.85;;;;;;;4.68;100.00;102049.38;3611412;39;20291;-64
2021/04/19 02:46:56;;;;;;;24.02;14.13;;;;;;;4.81;100.00;102047.03;3610921;39;20050;-64
2021/04/19 02:49:24;;;;;;;24.42;14.50;;;;;;;4.86;100.00;102042.38;3611023;39;20112;-66
2021/04/19 02:51:51;;;;;;;23.88;13.43;;;;;;;4.85;100.00;102041.50;3610310;39;20498;-64
2021/04/19 02:54:21;;;;;;;28.17;14.60;;;;;;;4.81;100.00;102044.38;3611412;39;20044;-65
2021/04/19 02:56:49;;;;;;;22.52;13.48;;;;;;;4.91;100.00;102038.53;3611260;39;20396;-65
2021/04/19 02:59:18;;;;;;;25.42;13.88;;;;;;;4.89;100.00;102043.09;3610663;39;20070;-65
2021/04/19 03:01:47;;;;;;;27.80;14.95;;;;;;;4.74;100.00;102038.44;3611096;39;20375;-64
2021/04/19 03:04:16;;;;;;;28.40;16.00;;;;;;;4.80;100.00;102042.63;3610919;39;20079;-63
2021/04/19 03:06:47;;;;;;;23.00;14.57;;;;;;;4.93;100.00;102040.28;3611999;39;20063;-64
2021/04/19 03:09:16;;;;;;;24.60;14.55;;;;;;;4.78;100.00;102045.38;3609966;39;20375;-63
2021/04/19 03:11:46;;;;;;;23.17;13.90;;;;;;;4.70;100.00;102042.19;3611922;39;20039;-64
2021/04/19 03:14:14;;;;;;;23.63;15.55;;;;;;;4.72;100.00;102048.31;3610169;39;20096;-63
2021/04/19 03:16:47;;;;;;;24.20;14.40;;;;;;;4.62;100.00;102033.66;3611169;39;20087;-64
2021/04/19 03:19:17;;;;;;;23.45;15.02;;;;;;;4.61;100.00;102037.25;3610097;39;20071;-64
2021/04/19 03:21:44;;;;;;;25.02;13.88;;;;;;;4.60;100.00;102035.53;3611970;39;20047;-65
2021/04/19 03:24:12;;;;;;;27.30;14.88;;;;;;;4.48;100.00;102034.28;3611047;39;20095;-63
2021/04/19 03:26:39;;;;;;;24.83;14.82;;;;;;;4.53;100.00;102051.81;3610918;39;20050;-63
2021/04/19 03:29:07;;;;;;;27.85;14.77;;;;;;;4.55;100.00;102047.28;3609715;39;20386;-64
2021/04/19 03:31:37;;;;;;;24.58;14.25;;;;;;;4.55;100.00;102039.28;3611607;39;20052;-64
2021/04/19 03:34:09;;;;;;;26.23;14.88;;;;;;;4.61;100.00;102042.59;3610431;39;20151;-64
2021/04/19 03:36:37;;;;;;;23.05;14.13;;;;;;;4.59;100.00;102042.66;3611363;39;20107;-63
2021/04/19 03:39:04;;;;;;;30.77;15.95;;;;;;;4.61;100.00;102045.25;3609372;39;20072;-65
2021/04/19 03:41:34;;;;;;;26.80;15.13;;;;;;;4.60;100.00;102055.06;3610424;39;20095;-64
2021/04/19 03:44:01;;;;;;;;;;;;;;;4.62;100.00;102052.31;3610795;39;20039;-63
2021/04/19 03:46:29;;;;;;;25.10;14.05;;;;;;;4.60;100.00;102062.22;3610784;39;20015;-64
2021/04/19 03:48:59;;;;;;;23.83;15.18;;;;;;;4.68;100.00;102060.06;3610682;39;20497;-64
2021/04/19 03:51:27;;;;;;;32.13;16.85;;;;;;;4.69;100.00;102061.78;3610924;39;20075;-63
2021/04/19 03:53:54;;;;;;;29.70;17.90;;;;;;;4.75;100.00;102056.19;3610430;39;20172;-63
2021/04/19 03:56:23;;;;;;;34.22;17.63;;;;;;;4.91;100.00;102057.22;3609361;39;20116;-63
2021/04/19 03:58:51;;;;;;;26.67;16.17;;;;;;;4.91;100.00;102056.34;3609873;39;20049;-62
2021/04/19 04:01:19;;;;;;;27.08;16.70;;;;;;;5.02;100.00;102062.06;3609504;39;20067;-64
2021/04/19 04:03:46;;;;;;;30.70;16.90;;;;;;;5.06;100.00;102054.78;3611480;39;20337;-64
2021/04/19 04:06:14;;;;;;;26.05;16.33;;;;;;;5.02;100.00;102050.50;3611076;39;20045;-65
2021/04/19 04:08:41;;;;;;;25.02;16.98;;;;;;;5.05;100.00;102053.03;3609486;39;20115;-63
2021/04/19 04:11:09;;;;;;;30.17;17.38;;;;;;;5.18;100.00;102054.22;3610656;39;20043;-63
2021/04/19 04:13:35;;;;;;;28.88;17.65;;;;;;;5.21;100.00;102048.75;3609962;39;20045;-63
2021/04/19 04:16:01;;;;;;;25.95;17.35;;;;;;;5.24;100.00;102045.94;3611238;39;20055;-65
2021/04/19 04:18:27;;;;;;;25.85;15.45;;;;;;;5.29;100.00;102042.19;3608850;39;20107;-64
2021/04/19 04:20:53;;;;;;;25.90;15.70;;;;;;;5.35;100.00;102045.41;3610943;39;20031;-64
2021/04/19 04:23:20;;;;;;;26.98;16.65;;;;;;;5.42;100.00;102049.53;3609675;39;20101;-64
2021/04/19 04:25:47;;;;;;;29.02;18.30;;;;;;;5.45;100.00;102040.50;3610009;39;20062;-64
2021/04/19 04:28:15;;;;;;;30.42;17.60;;;;;;;5.48;100.00;102050.16;3609698;39;20482;-64
2021/04/19 04:30:42;;;;;;;33.35;18.08;;;;;;;5.52;100.00;102039.28;3609885;39;20338;-64
2021/04/19 04:33:08;;;;;;;25.60;16.17;;;;;;;5.48;100.00;102043.03;3611160;39;20055;-63
2021/04/19 04:35:36;;;;;;;27.38;16.80;;;;;;;5.51;100.00;102040.19;3610097;39;20055;-64
2021/04/19 04:38:03;;;;;;;27.02;17.08;;;;;;;5.50;100.00;102038.47;3608809;39;20048;-66
2021/04/19 04:40:30;;;;;;;26.48;16.63;;;;;;;5.61;100.00;102037.97;3610320;39;20319;-64
2021/04/19 04:43:04;;;;;;;26.95;18.27;;;;;;;5.68;100.00;102042.03;3609940;39;20058;-64
2021/04/19 04:45:30;;;;;;;26.83;18.13;;;;;;;5.71;100.00;102041.03;3609571;39;20039;-65
2021/04/19 04:48:00;;;;;;;29.90;17.98;;;;;;;5.75;100.00;102032.78;3611101;39;20040;-64
2021/04/19 04:50:33;;;;;;;29.65;17.85;;;;;;;5.81;100.00;102044.13;3609373;39;20431;-65
2021/04/19 04:53:06;;;;;;;28.08;16.95;;;;;;;5.91;100.00;102038.22;3611246;39;20076;-64
2021/04/19 04:55:34;;;;;;;30.17;17.88;;;;;;;5.94;100.00;102043.41;3610582;39;20043;-64
2021/04/19 04:58:02;;;;;;;30.27;17.75;;;;;;;5.92;100.00;102039.97;3610359;39;20065;-65
2021/04/19 05:00:29;;;;;;;29.25;17.55;;;;;;;5.92;100.00;102039.97;3608887;39;20036;-64
2021/04/19 05:02:56;;;;;;;32.10;17.55;;;;;;;6.03;100.00;102041.28;3608511;39;20043;-64
2021/04/19 05:05:23;;;;;;;28.42;18.25;;;;;;;5.99;100.00;102048.56;3610676;39;20055;-65
2021/04/19 05:07:50;;;;;;;27.05;17.23;;;;;;;6.11;100.00;102049.75;3608917;39;20047;-65
2021/04/19 05:10:16;;;;;;;28.08;18.08;;;;;;;6.14;100.00;102054.97;3609635;39;20051;-64
2021/04/19 05:12:42;;;;;;;29.15;18.48;;;;;;;6.20;100.00;102060.00;3610376;39;20044;-64
2021/04/19 05:15:13;;;;;;;26.77;17.60;;;;;;;6.22;100.00;102058.09;3610267;39;20055;-64
2021/04/19 05:17:39;;;;;;;32.40;19.17;;;;;;;6.13;100.00;102064.78;3611960;39;20305;-64
2021/04/19 05:20:07;;;;;;;30.80;18.55;;;;;;;6.20;100.00;102053.75;3610868;39;20063;-65
2021/04/19 05:22:33;;;;;;;30.08;18.13;;;;;;;6.10;100.00;102056.91;3610172;39;20072;-63
2021/04/19 05:24:59;;;;;;;29.77;19.10;;;;;;;6.24;100.00;102060.69;3612709;39;20051;-64
2021/04/19 05:27:26;;;;;;;26.92;18.75;;;;;;;6.26;100.00;102051.66;3611437;39;20047;-64
2021/04/19 05:29:53;;;;;;;33.95;19.02;;;;;;;6.25;100.00;102052.59;3611666;39;20051;-64
2021/04/19 05:32:21;;;;;;;28.67;18.92;;;;;;;6.26;100.00;102054.31;3610142;39;20044;-64
2021/04/19 05:34:49;;;;;;;28.87;18.77;;;;;;;6.30;100.00;102053.22;3612553;39;20096;-64
2021/04/19 05:37:17;;;;;;;32.47;20.85;;;;;;;6.32;100.00;102048.66;3611721;39;20278;-65
2021/04/19 05:39:43;;;;;;;34.20;19.77;;;;;;;6.33;100.00;102044.19;3610413;39;20031;-65
2021/04/19 05:42:10;;;;;;;30.77;19.98;;;;;;;6.35;100.00;102046.78;3610888;39;20047;-65
2021/04/19 05:44:36;;;;;;;34.25;20.40;;;;;;;6.37;100.00;102052.91;3611612;39;20043;-62
2021/04/19 05:47:03;;;;;;;31.77;21.15;;;;;;;6.45;100.00;102048.03;3611776;39;20063;-64
2021/04/19 05:49:30;;;;;;;33.53;22.02;;;;;;;6.49;100.00;102050.47;3611180;39;20053;-63
2021/04/19 05:51:59;;;;;;;32.88;20.95;;;;;;;6.83;100.00;102053.16;3611788;39;20301;-63
2021/04/19 05:54:26;;;;;;;38.47;21.63;;;;;;;7.05;100.00;102062.69;3611339;39;20065;-64
2021/04/19 05:57:08;;;;;;;35.80;22.58;;;;;;;6.85;100.00;102064.66;3667567;22;20063;-62
2021/04/19 05:59:43;;;;;;;32.28;20.77;;;;;;;6.90;100.00;102057.22;3600199;39;20052;-63
2021/04/19 06:02:11;;;;;;;39.05;23.10;;;;;;;6.88;100.00;102051.09;3600554;39;20058;-63
2021/04/19 06:04:48;;;;;;;31.13;20.35;;;;;;;6.95;100.00;102055.19;3600452;39;20045;-64
2021/04/19 06:07:20;;;;;;;34.35;21.23;;;;;;;6.99;100.00;102056.75;3594423;39;20044;-62
2021/04/19 06:09:53;;;;;;;33.63;21.38;;;;;;;7.02;100.00;102063.72;3597627;39;20048;-62
2021/04/19 06:12:23;;;;;;;30.38;20.83;;;;;;;7.10;100.00;102066.88;3599772;39;21517;-63
2021/04/19 06:14:52;;;;;;;32.15;20.60;;;;;;;7.00;100.00;102069.16;3600922;39;20056;-64
2021/04/19 06:17:19;;;;;;;35.20;21.42;;;;;;;7.17;100.00;102072.75;3601283;39;20052;-64
2021/04/19 06:19:47;;;;;;;32.15;19.75;;;;;;;7.31;100.00;102062.13;3599955;39;20087;-64
2021/04/19 06:22:15;;;;;;;34.00;21.40;;;;;;;7.40;100.00;102063.44;3601643;39;20309;-64
2021/04/19 06:24:45;;;;;;;30.02;19.60;;;;;;;7.41;100.00;102065.16;3600972;39;20099;-64
2021/04/19 06:27:15;;;;;;;33.60;20.77;;;;;;;7.31;100.00;102067.47;3599834;39;20063;-65
2021/04/19 06:29:41;;;;;;;34.47;21.35;;;;;;;7.25;100.00;102057.13;3598761;39;20339;-64
2021/04/19 06:32:08;;;;;;;36.72;23.02;;;;;;;7.28;100.00;102067.66;3600966;39;20036;-64
2021/04/19 06:34:34;;;;;;;32.85;22.60;;;;;;;7.46;100.00;102060.41;3601679;39;20080;-64
2021/04/19 06:37:01;;;;;;;36.70;21.40;;;;;;;7.58;100.00;102066.88;3600869;39;20048;-64
2021/04/19 06:39:27;;;;;;;36.28;21.55;;;;;;;7.55;100.00;102064.38;3600291;39;20410;-64
2021/04/19 06:41:53;;;;;;;26.65;18.67;;;;;;;7.58;100.00;102066.88;3601217;39;20059;-64
2021/04/19 06:44:22;;;;;;;31.60;20.23;;;;;;;7.62;100.00;102073.78;3601501;39;20050;-64
2021/04/19 06:46:48;;;;;;;27.48;19.25;;;;;;;7.60;100.00;102073.03;3601303;39;20461;-64
2021/04/19 06:49:14;;;;;;;31.95;20.98;;;;;;;7.62;100.00;102075.63;3599839;39;20036;-65
2021/04/19 06:51:40;;;;;;;34.20;22.02;;;;;;;7.59;100.00;102073.97;3599923;39;20383;-65
2021/04/19 06:54:09;;;;;;;32.97;21.52;;;;;;;7.76;100.00;102066.78;3601229;39;20067;-64
2021/04/19 06:56:38;;;;;;;32.28;22.77;;;;;;;7.85;100.00;102063.59;3602137;39;20036;-64
2021/04/19 06:59:05;;;;;;;30.23;20.65;;;;;;;7.97;100.00;102062.00;3599945;39;20375;-67
2021/04/19 07:01:32;;;;;;;31.48;20.83;;;;;;;7.96;100.00;102071.84;3600127;39;20047;-64
2021/04/19 07:04:01;;;;;;;33.20;20.10;;;;;;;8.00;100.00;102059.16;3600035;39;20047;-64
2021/04/19 07:06:29;;;;;;;;;;;;;;;8.05;100.00;102063.31;3598777;39;20444;-64
2021/04/19 07:09:01;;;;;;;28.27;20.05;;;;;;;8.04;100.00;102063.38;3599855;39;19932;-64
2021/04/19 07:11:30;;;;;;;31.83;21.98;;;;;;;8.24;100.00;102063.06;3599674;39;20048;-64
2021/04/19 07:13:57;;;;;;;;;;;;;;;8.42;100.00;102058.41;3601180;39;20298;-65
2021/04/19 07:16:23;;;;;;;34.60;21.75;;;;;;;8.30;100.00;102053.78;3599018;39;19952;-65
2021/04/19 07:18:49;;;;;;;30.45;21.52;;;;;;;8.17;100.00;102063.50;3598191;39;20437;-65
2021/04/19 07:21:16;;;;;;;30.92;20.10;;;;;;;8.23;100.00;102057.81;3597837;39;20391;-65
2021/04/19 07:23:42;;;;;;;31.35;21.65;;;;;;;8.16;100.00;102065.34;3598584;39;20059;-65
2021/04/19 07:26:08;;;;;;;26.10;19.85;;;;;;;8.20;100.00;102066.00;3597994;39;20054;-66
2021/04/19 07:28:37;;;;;;;30.25;21.02;;;;;;;8.22;100.00;102056.91;3598655;39;20043;-66
2021/04/19 07:31:04;;;;;;;30.63;21.10;;;;;;;8.60;100.00;102044.88;3595836;39;20059;-66
2021/04/19 07:33:33;;;;;;;28.20;21.02;;;;;;;8.90;100.00;102054.66;3599072;39;20278;-64
2021/04/19 07:36:18;;;;;;;28.88;19.95;;;;;;;9.03;100.00;102062.81;3599785;39;20043;-65
2021/04/19 07:38:44;;;;;;;29.67;19.33;;;;;;;9.03;100.00;102058.31;3597912;39;20105;-65
2021/04/19 07:41:10;;;;;;;30.15;20.25;;;;;;;9.10;100.00;102059.66;3597995;39;20080;-65
2021/04/19 07:43:38;;;;;;;30.92;20.95;;;;;;;9.28;100.00;102054.06;3600167;39;20063;-66
2021/04/19 07:46:08;;;;;;;28.25;21.23;;;;;;;9.31;100.00;102061.94;3601189;39;20091;-65
2021/04/19 07:48:35;;;;;;;;;;;;;;;9.46;100.00;102054.69;3601794;39;20047;-66
2021/04/19 07:51:25;;;;;;;28.67;20.50;;;;;;;9.70;100.00;102052.25;3601339;39;19971;-65
2021/04/19 07:54:12;;;;;;;30.77;19.73;;;;;;;9.87;100.00;102052.94;3600988;39;20367;-65
2021/04/19 07:56:38;;;;;;;27.98;20.73;;;;;;;10.29;100.00;102042.94;3596469;39;20386;-65
2021/04/19 07:59:23;;;;;;;29.52;21.70;;;;;;;10.25;100.00;102050.38;3599836;39;20125;-65
2021/04/19 08:01:57;;;;;;;26.88;19.55;;;;;;;10.24;100.00;102050.47;3598724;39;20322;-66
2021/04/19 08:04:23;;;;;;;22.58;17.00;;;;;;;10.17;100.00;102053.59;3599744;39;20052;-66
2021/04/19 08:06:49;;;;;;;23.23;18.02;;;;;;;10.25;100.00;102052.19;3596975;39;20056;-65
2021/04/19 08:09:15;;;;;;;24.85;18.40;;;;;;;10.38;100.00;102053.13;3598497;39;20291;-67
2021/04/19 08:11:45;;;;;;;26.70;19.00;;;;;;;10.40;100.00;102047.63;3596871;39;20046;-66
2021/04/19 08:14:11;;;;;;;;;;;;;;;10.30;100.00;102052.72;3600058;39;20039;-66
2021/04/19 08:16:39;;;;;;;23.73;18.00;;;;;;;10.52;100.00;102052.16;3596559;39;20595;-66
2021/04/19 08:19:06;;;;;;;25.00;18.05;;;;;;;10.56;100.00;102050.13;3597167;39;20054;-66
2021/04/19 08:21:33;;;;;;;25.25;16.65;;;;;;;10.92;100.00;102045.78;3597163;39;20060;-66
2021/04/19 08:24:11;;;;;;;19.02;14.27;;;;;;;11.31;100.00;102047.44;3600520;39;20060;-66
2021/04/19 08:26:51;;;;;;;21.40;15.75;;;;;;;11.64;100.00;102048.63;3600440;39;20133;-66
2021/04/19 08:29:37;;;;;;;21.02;15.88;;;;;;;12.15;100.00;102047.56;3600151;39;20853;-66
2021/04/19 08:32:07;;;;;;;19.08;14.60;;;;;;;11.60;100.00;102048.97;3600791;39;20129;-65
2021/04/19 08:34:35;;;;;;;19.60;14.80;;;;;;;11.98;100.00;102045.28;3598079;39;20051;-65
2021/04/19 08:37:02;;;;;;;14.77;12.18;;;;;;;12.23;100.00;102041.56;3598516;39;20065;-66
2021/04/19 08:39:29;;;;;;;17.15;11.85;;;;;;;11.94;100.00;102049.19;3598518;39;20069;-67
2021/04/19 08:41:56;;;;;;;15.98;11.48;;;;;;;11.87;100.00;102044.22;3598991;39;20051;-67
2021/04/19 08:44:22;;;;;;;17.20;12.38;;;;;;;12.13;100.00;102043.25;3598735;39;20326;-67
2021/04/19 08:46:49;;;;;;;15.43;11.80;;;;;;;12.31;100.00;102040.97;3597440;39;20070;-64
2021/04/19 08:49:16;;;;;;;12.55;10.60;;;;;;;12.23;100.00;102045.16;3597403;39;20052;-66
2021/04/19 08:51:42;;;;;;;13.90;10.32;;;;;;;12.17;100.00;102044.75;3599644;39;20080;-65
2021/04/19 08:54:08;;;;;;;15.52;11.65;;;;;;;12.52;100.00;102039.31;3600073;39;20471;-66
2021/04/19 08:56:34;;;;;;;12.55;10.65;;;;;;;12.74;100.00;102043.88;3599491;39;20316;-66
2021/04/19 08:59:02;;;;;;;13.57;11.10;;;;;;;12.55;100.00;102039.06;3598446;39;20036;-67
2021/04/19 09:01:29;;;;;;;14.88;11.60;;;;;;;12.71;100.00;102035.19;3597694;39;20382;-65
2021/04/19 09:04:06;;;;;;;17.35;11.73;;;;;;;12.58;100.00;102041.53;3598197;39;20068;-67
2021/04/19 09:06:43;;;;;;;16.55;11.30;;;;;;;12.61;100.00;102033.19;3597681;39;20051;-65
2021/04/19 09:09:13;;;;;;;13.10;10.40;;;;;;;12.37;100.00;102032.41;3596032;39;20343;-66
2021/04/19 09:11:39;;;;;;;13.70;10.52;;;;;;;12.43;100.00;102040.88;3598077;39;20429;-65
2021/04/19 09:14:07;;;;;;;14.38;11.45;;;;;;;12.11;100.00;102027.16;3597085;39;20444;-66
2021/04/19 09:16:36;;;;;;;13.57;11.15;;;;;;;12.50;100.00;102027.78;3596691;39;20318;-66
2021/04/19 09:19:03;;;;;;;14.57;10.47;;;;;;;13.09;100.00;102034.81;3597124;39;20119;-66
2021/04/19 09:21:40;;;;;;;13.30;10.68;;;;;;;13.51;100.00;102033.31;3596611;39;20051;-66
2021/04/19 09:24:08;;;;;;;12.35;8.60;;;;;;;14.05;100.00;102036.94;3595986;39;20443;-67
2021/04/19 09:26:46;;;;;;;10.70;8.07;;;;;;;14.34;100.00;102031.75;3599418;39;20162;-65
2021/04/19 09:29:47;;;;;;;11.02;8.65;;;;;;;13.97;100.00;102035.75;3598593;39;20470;-66
2021/04/19 09:32:23;;;;;;;10.85;8.82;;;;;;;13.49;100.00;102028.03;3597878;39;20044;-67
2021/04/19 09:34:52;;;;;;;9.90;8.27;;;;;;;13.88;100.00;102031.09;3598565;39;20357;-64
2021/04/19 09:37:20;;;;;;;13.27;8.85;;;;;;;13.72;100.00;102027.94;3598998;39;20141;-66
2021/04/19 09:39:57;;;;;;;11.27;9.02;;;;;;;13.21;100.00;102030.25;3596016;39;20052;-66
2021/04/19 09:43:03;;;;;;;10.65;8.75;;;;;;;13.14;100.00;102024.47;3599128;39;20052;-67
2021/04/19 09:45:48;;;;;;;10.80;8.35;;;;;;;13.38;100.00;102028.03;3598405;39;20055;-67
2021/04/19 09:48:50;;;;;;;11.18;8.35;;;;;;;14.00;100.00;102027.38;3596451;39;20068;-67
2021/04/19 09:51:18;;;;;;;11.05;8.43;;;;;;;14.74;100.00;102027.44;3594556;39;20120;-67
2021/04/19 09:53:47;;;;;;;10.90;7.78;;;;;;;14.95;100.00;102030.97;3598442;39;20046;-66
2021/04/19 09:56:14;;;;;;;9.70;6.95;;;;;;;14.17;100.00;102027.78;3598127;39;20048;-65
2021/04/19 09:58:40;;;;;;;10.48;8.15;;;;;;;13.80;100.00;102030.88;3599044;39;20147;-65
2021/04/19 10:01:07;;;;;;;10.50;7.75;;;;;;;14.28;100.00;102025.00;3597914;39;20043;-65
2021/04/19 10:03:34;;;;;;;9.50;7.45;;;;;;;14.79;100.00;102020.63;3660861;22;20621;-66
2021/04/19 10:06:03;;;;;;;10.77;7.30;;;;;;;14.98;100.00;102021.72;3599065;39;20048;-68
2021/04/19 10:08:30;;;;;;;9.60;7.20;;;;;;;15.15;100.00;102025.59;3599304;39;20402;-65
2021/04/19 10:10:59;;;;;;;11.30;7.53;;;;;;;15.01;100.00;102033.13;3600454;39;20366;-66
2021/04/19 10:13:34;;;;;;;9.45;7.22;;;;;;;14.57;100.00;102024.31;3599425;39;20580;-66
2021/04/19 10:16:02;;;;;;;11.50;7.90;;;;;;;13.65;100.00;102033.88;3600412;39;20054;-67
2021/04/19 10:18:32;;;;;;;11.57;7.75;;;;;;;13.99;100.00;102024.78;3597231;39;20353;-68
2021/04/19 10:20:58;;;;;;;9.50;7.40;;;;;;;14.09;100.00;102031.13;3597187;39;20080;-67
2021/04/19 10:23:32;;;;;;;9.52;7.68;;;;;;;14.54;100.00;102024.59;3597874;39;20040;-66
2021/04/19 10:25:58;;;;;;;10.25;6.55;;;;;;;14.63;100.00;102022.97;3600251;39;20044;-66
2021/04/19 10:28:33;;;;;;;10.50;7.30;;;;;;;14.39;100.00;102025.94;3599369;39;20062;-65
2021/04/19 10:31:10;;;;;;;11.63;7.45;;;;;;;14.10;100.00;102032.00;3599671;39;20479;-65
2021/04/19 10:33:37;;;;;;;9.10;6.45;;;;;;;14.58;100.00;102031.47;3599980;39;20051;-65
2021/04/19 10:36:25;;;;;;;9.50;6.85;;;;;;;15.17;100.00;102023.63;3639111;22;20122;-67
2021/04/19 10:38:52;;;;;;;9.02;6.85;;;;;;;15.08;100.00;102030.75;3578128;40;20060;-67
2021/04/19 10:41:29;;;;;;;9.43;7.28;;;;;;;14.13;100.00;102029.00;3581429;40;20395;-67
2021/04/19 10:43:57;;;;;;;8.63;7.03;;;;;;;14.29;100.00;102026.72;3581787;40;20048;-66
2021/04/19 10:46:24;;;;;;;9.05;7.10;;;;;;;14.50;100.00;102024.00;3581489;40;20174;-68
2021/04/19 10:48:51;;;;;;;10.35;7.68;;;;;;;14.95;100.00;102016.56;3581217;40;20074;-66
2021/04/19 10:51:20;;;;;;;9.65;6.90;;;;;;;14.97;100.00;102020.84;3581792;40;20134;-67
2021/04/19 10:53:47;;;;;;;9.30;6.72;;;;;;;14.64;100.00;102022.81;3581112;40;20403;-66
2021/04/19 10:56:21;;;;;;;12.27;7.07;;;;;;;14.53;100.00;102022.84;3581029;40;20503;-67
2021/04/19 10:58:49;;;;;;;10.50;7.30;;;;;;;14.13;100.00;102029.00;3580442;40;20025;-66
2021/04/19 11:01:22;;;;;;;8.15;6.45;;;;;;;14.27;100.00;102020.56;3580283;40;20496;-66
2021/04/19 11:03:48;;;;;;;8.85;6.43;;;;;;;14.59;100.00;102011.50;3581173;40;20206;-66
2021/04/19 11:06:16;;;;;;;7.43;5.53;;;;;;;14.79;100.00;102014.34;3580913;40;20146;-67
2021/04/19 11:08:51;;;;;;;8.57;6.37;;;;;;;15.05;100.00;102010.16;3581395;40;20040;-65
2021/04/19 11:11:25;;;;;;;7.15;5.90;;;;;;;14.87;100.00;102009.13;3579967;40;20275;-70
2021/04/19 11:13:52;;;;;;;8.27;5.70;;;;;;;14.45;100.00;102010.00;3581499;40;20127;-65
2021/04/19 11:16:19;;;;;;;7.05;6.18;;;;;;;14.43;100.00;102006.56;3579017;40;20385;-67
2021/04/19 11:18:47;;;;;;;8.38;6.22;;;;;;;15.12;100.00;102002.34;3581165;40;20430;-65
2021/04/19 11:21:27;;;;;;;6.93;5.85;;;;;;;15.39;94.64;102003.56;3579341;40;20052;-67
2021/04/19 11:24:08;;;;;;;7.68;6.20;;;;;;;15.07;97.32;101999.19;3579700;40;20146;-65